createdAt,value
2022-09-12T00:05:15.265Z,94459.55
2022-09-12T00:13:41.904Z,94494.80
2022-09-12T00:22:04.779Z,94517.92
2022-09-12T00:30:27.716Z,94529.81
2022-09-12T00:38:52.007Z,94530.69
2022-09-12T00:47:25.552Z,94549.16
2022-09-12T00:55:52.760Z,94565.96
2022-09-12T01:04:17.701Z,94574.27
2022-09-12T01:12:42.551Z,94570.22
2022-09-12T01:21:16.637Z,94570.98
2022-09-12T01:30:01.190Z,94570.55
2022-09-12T01:38:43.518Z,94576.09
2022-09-12T01:47:21.702Z,94582.70
2022-09-12T01:55:51.424Z,94585.87
2022-09-12T02:04:34.237Z,94601.09
2022-09-12T02:13:03.663Z,94603.81
2022-09-12T02:21:28.893Z,94595.86
2022-09-12T02:29:52.380Z,94594.48
2022-09-12T02:38:26.757Z,94588.66
2022-09-12T02:46:55.339Z,94579.67
2022-09-12T02:55:18.796Z,94579.53
2022-09-12T03:04:05.531Z,94571.12
2022-09-12T03:13:18.166Z,94565.69
2022-09-12T03:22:02.889Z,94566.65
2022-09-12T03:30:26.839Z,94565.16
2022-09-12T03:38:50.450Z,94570.47
2022-09-12T03:47:13.286Z,94571.13
2022-09-12T03:55:36.474Z,94564.44
2022-09-12T04:03:59.470Z,94573.70
2022-09-12T04:12:22.940Z,94571.61
2022-09-12T04:20:45.820Z,94556.77
2022-09-12T04:29:11.908Z,94504.64
2022-09-12T04:37:34.856Z,94491.54
2022-09-12T04:46:05.497Z,94456.25
2022-09-12T04:54:28.366Z,94415.13
2022-09-12T05:02:51.332Z,94414.27
2022-09-12T05:11:24.710Z,94417.54
2022-09-12T05:19:49.577Z,94415.01
2022-09-12T05:28:12.385Z,94428.84
2022-09-12T05:36:37.135Z,94441.51
2022-09-12T05:45:00.028Z,94443.55
2022-09-12T05:53:23.031Z,94472.83
2022-09-12T06:01:46.688Z,94486.59
2022-09-12T06:10:12.066Z,94514.84
2022-09-12T06:18:36.237Z,94524.05
2022-09-12T06:26:59.140Z,94552.14
2022-09-12T06:35:22.025Z,94581.56
2022-09-12T06:43:44.998Z,94596.41
2022-09-12T06:52:07.805Z,94618.55
2022-09-12T07:00:31.464Z,94647.83
2022-09-12T07:08:54.437Z,94661.39
2022-09-12T07:17:18.169Z,94642.71
2022-09-12T07:25:41.212Z,94643.73
2022-09-12T07:34:06.919Z,94656.08
2022-09-12T07:42:29.689Z,94686.30
2022-09-12T07:51:04.097Z,94733.64
2022-09-12T07:59:50.903Z,94786.48
2022-09-12T08:08:11.068Z,94822.30
2022-09-12T08:16:35.699Z,94857.29
2022-09-12T08:24:58.807Z,94891.52
2022-09-12T08:33:22.377Z,94952.35
2022-09-12T08:41:48.031Z,94965.21
2022-09-12T08:50:11.824Z,94989.75
2022-09-12T08:58:40.152Z,95000.02
2022-09-12T09:07:09.212Z,95010.76
2022-09-12T09:16:00.873Z,95037.64
2022-09-12T09:24:48.578Z,95052.40
2022-09-12T09:33:21.882Z,95081.72
2022-09-12T09:41:53.699Z,95151.48
2022-09-12T09:50:17.521Z,95223.72
2022-09-12T09:58:40.877Z,95235.66
2022-09-12T10:07:06.212Z,95206.20
2022-09-12T10:15:29.636Z,95188.10
2022-09-12T10:24:00.425Z,95190.59
2022-09-12T10:32:39.886Z,95199.41
2022-09-12T10:41:09.578Z,95249.16
2022-09-12T10:49:38.432Z,95308.46
2022-09-12T10:58:14.020Z,95324.16
2022-09-12T11:06:46.393Z,95354.61
2022-09-12T11:15:56.348Z,95383.20
2022-09-12T11:24:41.214Z,95369.11
2022-09-12T11:33:09.314Z,95336.90
2022-09-12T11:41:37.895Z,95340.17
2022-09-12T11:50:07.237Z,95387.56
2022-09-12T11:58:30.083Z,95454.98
2022-09-12T12:07:07.885Z,95504.58
2022-09-12T12:15:33.323Z,95556.69
2022-09-12T12:24:09.162Z,95636.17
2022-09-12T12:32:33.172Z,95828.99
2022-09-12T12:41:18.720Z,95972.84
2022-09-12T12:49:54.885Z,96054.43
2022-09-12T12:58:29.527Z,96068.59
2022-09-12T13:07:04.608Z,96009.95
2022-09-12T13:15:36.434Z,95919.29
2022-09-12T13:24:16.109Z,95856.48
2022-09-12T13:32:39.692Z,95857.68
2022-09-12T13:41:31.749Z,95876.78
2022-09-12T13:49:56.437Z,95825.45
2022-09-12T13:58:23.930Z,95778.56
2022-09-12T14:06:52.558Z,95758.70
2022-09-12T14:15:28.776Z,95738.04
2022-09-12T14:23:51.975Z,95741.00
2022-09-12T14:32:23.761Z,95733.30
2022-09-12T14:41:08.385Z,95708.83
2022-09-12T14:49:38.205Z,95682.21
2022-09-12T14:58:19.222Z,95650.30
2022-09-12T15:06:42.063Z,95639.40
2022-09-12T15:15:15.131Z,95625.84
2022-09-12T15:23:48.622Z,95631.67
2022-09-12T15:32:22.736Z,95637.05
2022-09-12T15:40:54.043Z,95613.69
2022-09-12T15:49:17.425Z,95593.29
2022-09-12T15:57:40.882Z,95569.44
2022-09-12T16:06:05.467Z,95537.83
2022-09-12T16:14:28.257Z,95519.41
2022-09-12T16:22:51.026Z,95514.00
2022-09-12T16:31:14.802Z,95509.42
2022-09-12T16:39:38.124Z,95500.04
2022-09-12T16:48:01.846Z,95505.66
2022-09-12T16:56:26.181Z,95477.54
2022-09-12T17:04:49.124Z,95443.52
2022-09-12T17:13:12.492Z,95421.88
2022-09-12T17:21:35.716Z,95419.77
2022-09-12T17:29:58.532Z,95426.77
2022-09-12T17:38:25.348Z,95430.41
2022-09-12T17:46:48.377Z,95418.60
2022-09-12T17:55:14.115Z,95404.17
2022-09-12T18:03:37.047Z,95389.84
2022-09-12T18:12:00.035Z,95402.75
2022-09-12T18:20:23.700Z,95372.48
2022-09-12T18:28:46.455Z,95337.02
2022-09-12T18:37:09.288Z,95319.97
2022-09-12T18:45:32.273Z,95330.27
2022-09-12T18:53:58.488Z,95332.17
2022-09-12T19:02:21.309Z,95307.27
2022-09-12T19:10:44.773Z,95292.96
2022-09-12T19:19:08.341Z,95279.02
2022-09-12T19:27:33.043Z,95282.75
2022-09-12T19:35:55.816Z,95280.16
2022-09-12T19:44:21.479Z,95277.08
2022-09-12T19:52:44.268Z,95278.50
2022-09-12T20:01:10.945Z,95231.95
2022-09-12T20:09:34.506Z,95144.36
2022-09-12T20:17:57.981Z,95084.59
2022-09-12T20:26:20.862Z,95020.67
2022-09-12T20:34:44.669Z,94939.38
2022-09-12T20:43:07.609Z,94878.86
2022-09-12T20:51:32.012Z,94818.86
2022-09-12T20:59:54.996Z,94784.30
2022-09-12T21:08:17.917Z,94768.23
2022-09-12T21:16:40.701Z,94756.34
2022-09-12T21:25:03.752Z,94782.56
2022-09-12T21:33:28.210Z,94792.73
2022-09-12T21:41:51.110Z,94829.85
2022-09-12T21:50:14.976Z,94828.27
2022-09-12T21:58:38.428Z,94806.46
2022-09-12T22:07:02.220Z,94805.70
2022-09-12T22:15:41.494Z,94842.70
2022-09-12T22:24:23.887Z,94857.21
2022-09-12T22:32:50.263Z,94872.58
2022-09-12T22:41:13.284Z,94886.58
2022-09-12T22:49:36.127Z,94868.27
2022-09-12T22:57:59.935Z,94805.18
2022-09-12T23:06:22.797Z,94732.88
2022-09-12T23:14:47.215Z,94693.71
2022-09-12T23:23:10.125Z,94678.45
2022-09-12T23:31:35.566Z,94659.61
2022-09-12T23:39:59.165Z,94674.95
2022-09-12T23:48:22.227Z,94661.55
2022-09-12T23:56:46.169Z,94601.24
